Time;durP1;ratioP1;P1;durP2;ratioP2;P2;SDS_P1;SDS_P2;PMS_P1;PMS_P2;Temp;Humidity;BMP_temperature;BMP_pressure;BME280_temperature;BME280_humidity;BME280_pressure;Samples;Min_cycle;Max_cycle;Signal;HPM_P1;HPM_P2
2022/02/09 00:03:19;;;;;;;7.95;5.63;;;9.10;99.90;;;;;;5096565;28;20035;-51
2022/02/09 00:07:01;;;;;;;11.82;8.13;;;9.10;99.90;;;;;;5087114;28;20036;-49
2022/02/09 00:09:48;;;;;;;;;;;9.10;99.90;;;;;;5099103;28;20457;-50
2022/02/09 00:13:40;;;;;;;9.90;7.10;;;9.10;99.90;;;;;;5089702;28;20378;-51
2022/02/09 00:20:48;;;;;;;10.27;7.22;;;9.10;99.90;;;;;;5087746;28;20042;-50
2022/02/09 00:34:06;;;;;;;11.65;8.30;;;9.10;99.90;;;;;;5094527;28;20080;-52
2022/02/09 00:37:25;;;;;;;12.45;9.00;;;9.10;99.90;;;;;;5106514;28;20032;-54
2022/02/09 00:41:14;;;;;;;10.23;7.60;;;9.20;99.90;;;;;;5096785;28;20035;-48
2022/02/09 01:11:49;;;;;;;15.30;8.52;;;9.00;99.90;;;;;;5101555;28;20051;-52
2022/02/09 01:43:17;;;;;;;14.52;9.43;;;8.90;99.90;;;;;;5102683;28;20034;-52
2022/02/09 01:55:36;;;;;;;18.45;11.32;;;8.90;99.90;;;;;;5100428;28;20122;-50
2022/02/09 01:59:01;;;;;;;14.40;9.35;;;8.90;99.90;;;;;;5084849;28;20060;-52
2022/02/09 02:02:26;;;;;;;14.18;8.93;;;8.90;99.90;;;;;;5099614;28;20450;-53
2022/02/09 02:05:55;;;;;;;13.70;8.70;;;8.90;99.90;;;;;;5095895;28;20108;-48
2022/02/09 02:09:18;;;;;;;14.73;9.15;;;8.90;99.90;;;;;;5088137;28;20036;-52
2022/02/09 02:12:42;;;;;;;14.25;8.25;;;8.90;99.90;;;;;;5101237;28;20063;-48
2022/02/09 02:16:21;;;;;;;13.65;9.00;;;8.90;99.90;;;;;;5102095;28;20035;-51
2022/02/09 02:22:39;;;;;;;13.20;7.82;;;8.90;99.90;;;;;;5099026;28;19922;-49
2022/02/09 02:32:46;;;;;;;11.50;7.40;;;8.90;99.90;;;;;;5104707;28;20028;-51
2022/02/09 02:36:26;;;;;;;12.50;8.32;;;8.90;99.90;;;;;;5108249;28;20035;-50
2022/02/09 02:39:54;;;;;;;13.13;8.30;;;8.80;99.90;;;;;;5091973;28;20036;-52
2022/02/09 02:59:44;;;;;;;14.13;8.75;;;8.90;99.90;;;;;;5110140;28;20595;-49
2022/02/09 03:10:16;;;;;;;13.65;8.20;;;8.80;99.90;;;;;;5091550;28;20046;-48
2022/02/09 03:13:24;;;;;;;13.80;7.57;;;8.80;99.90;;;;;;5109449;28;20032;-53
2022/02/09 03:16:57;;;;;;;13.85;8.25;;;8.80;99.90;;;;;;5102446;28;20080;-50
2022/02/09 03:19:59;;;;;;;;;;;8.80;99.90;;;;;;5103078;28;20523;-52
2022/02/09 03:26:54;;;;;;;14.18;7.95;;;8.80;99.90;;;;;;5100160;28;20564;-49
2022/02/09 03:50:50;;;;;;;9.65;7.32;;;8.70;99.90;;;;;;5090617;28;20101;-50
2022/02/09 03:57:23;;;;;;;9.05;6.65;;;8.80;99.90;;;;;;5103784;28;20031;-48
2022/02/09 04:00:39;;;;;;;8.48;5.95;;;8.80;99.90;;;;;;5100461;28;20086;-48
2022/02/09 04:03:23;;;;;;;8.45;6.45;;;8.80;99.90;;;;;;5104353;28;20040;-61
2022/02/09 04:05:49;;;;;;;11.65;7.07;;;8.80;99.90;;;;;;5108247;28;20121;-60
2022/02/09 04:08:18;;;;;;;8.65;6.53;;;8.80;99.90;;;;;;5110645;28;20031;-61
2022/02/09 04:10:50;;;;;;;8.15;6.88;;;8.90;99.90;;;;;;5104630;28;20183;-61
2022/02/09 04:13:36;;;;;;;10.32;7.00;;;8.90;99.90;;;;;;5090118;28;20389;-60
2022/02/09 04:16:19;;;;;;;12.98;8.63;;;8.90;99.90;;;;;;5094547;28;20024;-61
2022/02/09 04:39:14;;;;;;;14.23;8.63;;;8.90;99.90;;;;;;5089661;28;20035;-60
2022/02/09 04:49:08;;;;;;;15.15;10.45;;;8.90;99.90;;;;;;5089178;28;20117;-60
2022/02/09 04:52:36;;;;;;;14.13;10.27;;;8.90;99.90;;;;;;5102259;28;20506;-60
2022/02/09 04:55:57;;;;;;;13.77;9.75;;;8.90;99.90;;;;;;5101216;28;20139;-61
2022/02/09 04:59:28;;;;;;;15.43;10.93;;;8.90;99.90;;;;;;5101950;28;20057;-60
2022/02/09 05:20:33;;;;;;;16.42;10.70;;;8.90;99.90;;;;;;5102492;28;20079;-60
2022/02/09 05:23:23;;;;;;;16.45;11.43;;;8.80;99.90;;;;;;5106329;28;20039;-60
2022/02/09 05:30:03;;;;;;;16.00;10.50;;;8.80;99.90;;;;;;5092096;28;20101;-61
2022/02/09 05:33:25;;;;;;;15.95;9.82;;;8.80;99.90;;;;;;5108646;28;20119;-61
2022/02/09 05:36:50;;;;;;;16.83;11.77;;;8.80;99.90;;;;;;5089001;28;20082;-60
2022/02/09 05:40:15;;;;;;;15.48;10.60;;;8.80;99.90;;;;;;5094105;28;20491;-61
2022/02/09 05:43:41;;;;;;;17.23;10.75;;;8.80;99.90;;;;;;5105160;28;20032;-61
2022/02/09 05:50:39;;;;;;;13.20;9.43;;;8.70;99.90;;;;;;5087062;28;20072;-61
2022/02/09 06:00:27;;;;;;;14.50;10.07;;;8.70;99.90;;;;;;5105088;28;20093;-60
2022/02/09 06:03:52;;;;;;;15.90;9.68;;;8.80;99.90;;;;;;5110458;28;20039;-61
2022/02/09 06:07:20;;;;;;;12.40;8.70;;;8.70;99.90;;;;;;5107366;28;20044;-60
2022/02/09 06:10:50;;;;;;;12.45;8.23;;;8.70;99.90;;;;;;5104651;28;20054;-60
2022/02/09 06:20:58;;;;;;;12.15;7.82;;;8.70;99.90;;;;;;5107459;28;20537;-61
2022/02/09 06:24:22;;;;;;;10.40;7.28;;;8.70;99.90;;;;;;5092106;28;20055;-60
2022/02/09 06:27:49;;;;;;;10.07;6.75;;;8.70;99.90;;;;;;5112455;28;20518;-61
2022/02/09 06:31:12;;;;;;;9.07;6.65;;;8.70;99.90;;;;;;5108092;28;20079;-60
2022/02/09 06:34:38;;;;;;;8.48;6.07;;;8.70;99.90;;;;;;5100709;28;20373;-60
2022/02/09 06:38:03;;;;;;;10.98;6.30;;;8.70;99.90;;;;;;5091699;28;20221;-60
2022/02/09 06:41:28;;;;;;;8.35;5.55;;;8.70;99.90;;;;;;5109560;28;20035;-60
2022/02/09 06:45:00;;;;;;;8.45;5.65;;;8.70;99.90;;;;;;5104462;28;20394;-61
2022/02/09 06:48:19;;;;;;;7.60;5.10;;;8.70;99.90;;;;;;5105002;28;20035;-60
2022/02/09 06:51:46;;;;;;;10.40;6.57;;;8.70;99.90;;;;;;5109938;28;20079;-60
2022/02/09 06:58:22;;;;;;;8.77;5.72;;;8.70;99.90;;;;;;5091629;28;20028;-60
2022/02/09 07:01:44;;;;;;;7.65;5.30;;;8.70;99.90;;;;;;5107926;28;20039;-59
2022/02/09 07:05:09;;;;;;;9.75;6.18;;;8.80;99.90;;;;;;5102742;28;20032;-60
2022/02/09 07:08:34;;;;;;;7.75;4.75;;;8.80;99.90;;;;;;5105161;28;20034;-59
2022/02/09 07:12:00;;;;;;;6.60;4.57;;;8.80;99.90;;;;;;5107153;28;20043;-60
2022/02/09 07:15:29;;;;;;;6.95;4.47;;;8.80;99.90;;;;;;5102701;28;20467;-60
2022/02/09 07:18:51;;;;;;;8.52;4.97;;;8.80;99.90;;;;;;5103623;28;20047;-59
2022/02/09 07:22:23;;;;;;;5.70;4.43;;;8.90;99.90;;;;;;5108165;28;20580;-59
2022/02/09 07:25:47;;;;;;;6.03;4.35;;;8.90;99.90;;;;;;5101099;28;20035;-60
2022/02/09 07:29:07;;;;;;;5.20;3.85;;;8.80;99.90;;;;;;5100633;28;20039;-59
2022/02/09 07:32:32;;;;;;;6.05;4.38;;;8.80;99.90;;;;;;5109813;28;20399;-60
2022/02/09 07:35:57;;;;;;;5.47;3.97;;;8.90;99.90;;;;;;5104392;28;20032;-60
2022/02/09 07:39:23;;;;;;;6.90;3.75;;;8.90;99.90;;;;;;5103265;28;20511;-60
2022/02/09 07:42:52;;;;;;;8.32;5.10;;;9.00;99.90;;;;;;5092261;28;20038;-60
2022/02/09 07:49:50;;;;;;;6.05;4.20;;;9.00;99.90;;;;;;5099740;28;20109;-60
2022/02/09 07:53:09;;;;;;;9.85;4.90;;;9.00;99.90;;;;;;5099195;28;20047;-60
2022/02/09 07:56:27;;;;;;;6.45;4.28;;;9.00;99.90;;;;;;5089088;28;20039;-60
2022/02/09 07:59:52;;;;;;;7.50;5.15;;;9.10;99.90;;;;;;5104137;28;20550;-60
2022/02/09 08:03:18;;;;;;;5.47;4.10;;;9.10;99.90;;;;;;5089538;28;20030;-60
2022/02/09 08:06:43;;;;;;;7.80;4.60;;;9.10;99.90;;;;;;5100704;28;20085;-60
2022/02/09 08:10:16;;;;;;;4.28;3.78;;;9.10;99.90;;;;;;5101534;28;20476;-59
2022/02/09 08:20:31;;;;;;;8.00;4.40;;;9.10;99.90;;;;;;5101935;28;20074;-60
2022/02/09 08:24:01;;;;;;;;;;;9.10;99.90;;;;;;5096713;28;20071;-60
2022/02/09 08:33:57;;;;;;;4.50;3.80;;;9.20;99.90;;;;;;5085723;28;20032;-60
2022/02/09 08:37:23;;;;;;;7.75;3.50;;;9.30;99.90;;;;;;5103972;28;20031;-59
2022/02/09 08:40:42;;;;;;;6.50;4.32;;;9.30;99.90;;;;;;5108748;28;20031;-59
2022/02/09 08:43:11;;;;;;;4.85;3.67;;;9.40;99.90;;;;;;5086735;28;20073;-59
2022/02/09 08:45:38;;;;;;;4.90;3.42;;;9.50;99.90;;;;;;5106908;28;20028;-60
2022/02/09 08:48:44;;;;;;;6.10;3.83;;;9.60;99.90;;;;;;5109047;28;20034;-59
2022/02/09 08:52:09;;;;;;;3.83;3.05;;;9.60;99.90;;;;;;5095516;28;20047;-59
2022/02/09 08:55:35;;;;;;;3.65;3.15;;;9.70;99.90;;;;;;5102903;28;20110;-59
2022/02/09 08:59:00;;;;;;;5.35;3.53;;;9.70;99.90;;;;;;5105674;28;20039;-60
2022/02/09 09:02:33;;;;;;;4.30;3.30;;;9.80;99.90;;;;;;5089606;28;20039;-60
2022/02/09 09:05:51;;;;;;;4.30;3.10;;;9.90;99.90;;;;;;5100265;28;20426;-59
2022/02/09 09:09:25;;;;;;;4.00;3.00;;;9.90;99.90;;;;;;5106371;28;20035;-60
2022/02/09 09:25:18;;;;;;;3.92;2.88;;;10.00;99.90;;;;;;5103696;28;20656;-60
2022/02/09 10:04:11;;;;;;;4.63;3.45;;;10.50;99.90;;;;;;5087690;28;20082;-59
2022/02/09 10:34:47;;;;;;;3.78;3.20;;;10.50;99.90;;;;;;5089998;28;20100;-58
2022/02/09 10:37:13;;;;;;;3.60;3.25;;;10.50;99.90;;;;;;5091685;28;20469;-59
2022/02/09 10:43:03;;;;;;;4.75;3.45;;;10.30;99.90;;;;;;5093339;28;20034;-60
2022/02/09 10:46:29;;;;;;;4.88;3.60;;;10.30;99.90;;;;;;5099545;28;20630;-59
2022/02/09 10:49:54;;;;;;;4.72;3.90;;;10.20;99.90;;;;;;5090792;28;20048;-59
2022/02/09 10:53:24;;;;;;;4.65;3.28;;;10.20;99.90;;;;;;5106748;28;20077;-59
2022/02/09 10:56:48;;;;;;;5.50;3.20;;;10.20;99.90;;;;;;5093503;28;20056;-59
2022/02/09 11:00:13;;;;;;;4.90;2.75;;;10.30;99.90;;;;;;5090539;28;20412;-59
2022/02/09 11:03:39;;;;;;;6.38;2.95;;;10.50;99.90;;;;;;5109087;28;20035;-59
2022/02/09 11:07:08;;;;;;;5.28;2.45;;;10.70;99.90;;;;;;5100692;28;20419;-60
2022/02/09 11:10:13;;;;;;;;;;;11.00;99.90;;;;;;5105230;28;20409;-60
2022/02/09 11:13:38;;;;;;;4.15;3.08;;;11.00;99.90;;;;;;5090879;28;20285;-59
2022/02/09 11:17:06;;;;;;;4.05;3.15;;;11.00;99.90;;;;;;5099757;28;20039;-58
2022/02/09 11:20:12;;;;;;;;;;;10.90;99.90;;;;;;5105530;28;20130;-59
2022/02/09 11:23:36;;;;;;;4.30;2.42;;;10.90;99.90;;;;;;5090078;28;19908;-57
2022/02/09 11:27:18;;;;;;;3.22;2.45;;;10.80;99.90;;;;;;5103077;28;20036;-57
2022/02/09 11:30:51;;;;;;;4.07;2.35;;;10.80;99.90;;;;;;5081066;28;20126;-58
2022/02/09 11:33:57;;;;;;;4.47;2.15;;;10.80;99.90;;;;;;5104551;28;20084;-57
2022/02/09 11:37:27;;;;;;;3.65;2.38;;;10.70;99.90;;;;;;5097906;28;20599;-57
2022/02/09 11:40:28;;;;;;;3.83;1.90;;;10.70;99.90;;;;;;5106107;28;20122;-56
2022/02/09 11:43:03;;;;;;;3.00;1.83;;;10.70;99.90;;;;;;5095406;28;20037;-58
2022/02/09 11:45:56;;;;;;;2.83;1.70;;;10.70;99.90;;;;;;5089708;28;20024;-57
2022/02/09 11:51:58;;;;;;;3.63;1.70;;;10.80;99.90;;;;;;5090588;28;20059;-57
2022/02/09 12:09:57;;;;;;;2.13;1.40;;;11.40;99.90;;;;;;5090819;28;20496;-59
2022/02/09 12:13:22;;;;;;;1.65;1.23;;;11.40;99.90;;;;;;5109510;28;20480;-59
2022/02/09 12:20:27;;;;;;;3.03;1.50;;;11.50;99.90;;;;;;5089347;28;20118;-59
2022/02/09 12:23:54;;;;;;;1.80;1.45;;;11.50;99.90;;;;;;5109332;28;20036;-58
2022/02/09 12:27:08;;;;;;;3.30;1.30;;;11.50;99.90;;;;;;5105409;28;20037;-59
2022/02/09 12:30:39;;;;;;;1.75;1.10;;;11.50;99.90;;;;;;5098079;28;20047;-59
2022/02/09 12:34:06;;;;;;;2.28;1.10;;;11.30;99.90;;;;;;5092241;28;20035;-59
2022/02/09 12:37:30;;;;;;;6.53;1.77;;;11.20;99.90;;;;;;5106471;28;20031;-58
2022/02/09 12:40:59;;;;;;;2.38;1.50;;;11.10;99.90;;;;;;5101254;28;20037;-59
2022/02/09 12:44:10;;;;;;;5.38;1.50;;;11.00;99.90;;;;;;5100345;28;20394;-59
2022/02/09 12:47:35;;;;;;;3.22;1.33;;;10.90;99.90;;;;;;5102789;28;20078;-58
2022/02/09 12:51:01;;;;;;;1.70;1.38;;;10.90;99.90;;;;;;5096377;28;20043;-58
2022/02/09 12:54:26;;;;;;;2.10;1.60;;;10.90;99.90;;;;;;5088171;28;20056;-58
2022/02/09 12:57:58;;;;;;;2.03;1.50;;;10.90;99.90;;;;;;5106688;28;20040;-59
2022/02/09 13:01:23;;;;;;;2.63;1.48;;;10.90;99.90;;;;;;5105518;28;20028;-59
2022/02/09 13:04:54;;;;;;;4.07;1.80;;;10.90;99.90;;;;;;5105630;28;20475;-58
2022/02/09 13:08:20;;;;;;;2.30;1.83;;;10.70;99.90;;;;;;5105922;28;20063;-59
2022/02/09 13:11:45;;;;;;;2.78;1.90;;;10.50;99.90;;;;;;5103229;28;20100;-59
2022/02/09 13:15:22;;;;;;;2.78;1.98;;;10.30;99.90;;;;;;5104661;28;20039;-59
2022/02/09 13:25:39;;;;;;;2.60;2.13;;;10.40;99.90;;;;;;5086447;28;20402;-59
2022/02/09 14:03:00;;;;;;;2.00;1.80;;;10.70;99.90;;;;;;5103656;28;20054;-58
2022/02/09 14:03:29;;;;;;;;;;;10.70;99.90;;;;;;5105728;28;20035;-55
2022/02/09 14:07:02;;;;;;;2.35;1.75;;;10.60;99.90;;;;;;5097044;28;20002;-58
2022/02/09 14:34:49;;;;;;;1.48;1.30;;;10.30;99.90;;;;;;5103295;28;20514;-59
2022/02/09 14:47:20;;;;;;;4.25;1.60;;;10.20;99.90;;;;;;5097015;28;20035;-61
2022/02/09 14:48:15;;;;;;;2.20;1.92;;;10.20;99.90;;;;;;5090877;28;20138;-60
2022/02/09 14:54:56;;;;;;;1.73;1.63;;;10.20;99.90;;;;;;5062231;28;20126;-60
2022/02/09 14:58:23;;;;;;;2.70;1.70;;;10.10;99.90;;;;;;5086849;28;20695;-60
2022/02/09 15:01:50;;;;;;;1.63;1.23;;;10.10;99.90;;;;;;5108698;28;20027;-61
2022/02/09 15:08:28;;;;;;;1.88;1.50;;;10.10;99.90;;;;;;5107371;28;20030;-60
2022/02/09 15:11:58;;;;;;;2.08;1.75;;;10.00;99.90;;;;;;5089358;28;20040;-60
2022/02/09 15:15:49;;;;;;;2.08;1.83;;;10.00;99.90;;;;;;5108721;28;20122;-60
2022/02/09 15:22:11;;;;;;;2.35;1.58;;;9.90;99.90;;;;;;5102531;28;20419;-60
2022/02/09 15:25:34;;;;;;;2.60;1.83;;;9.90;99.90;;;;;;5100676;28;20066;-59
2022/02/09 15:28:59;;;;;;;2.15;1.83;;;9.90;99.90;;;;;;5090440;28;20044;-60
2022/02/09 15:32:33;;;;;;;2.47;1.38;;;9.80;99.90;;;;;;5106046;28;20052;-60
2022/02/09 15:35:56;;;;;;;1.77;1.40;;;9.80;99.90;;;;;;5104558;28;20035;-60
2022/02/09 15:39:16;;;;;;;1.70;1.50;;;9.80;99.90;;;;;;5108991;28;20682;-60
2022/02/09 15:59:55;;;;;;;3.42;1.38;;;9.60;99.90;;;;;;5047035;28;20033;-60
2022/02/09 16:06:03;;;;;;;2.80;1.48;;;9.50;99.90;;;;;;5104874;28;20124;-62
2022/02/09 16:21:58;;;;;;;1.83;1.70;;;9.20;99.90;;;;;;5104240;28;20058;-62
2022/02/09 16:44:59;;;;;;;2.30;2.10;;;8.90;99.90;;;;;;5097140;28;20092;-63
2022/02/09 16:48:24;;;;;;;3.15;2.85;;;8.90;99.90;;;;;;5101330;28;20059;-63
2022/02/09 16:52:00;;;;;;;2.50;2.30;;;8.90;99.90;;;;;;5088720;28;20044;-61
2022/02/09 17:08:28;;;;;;;2.83;2.30;;;8.90;99.90;;;;;;5098826;28;20038;-61
2022/02/09 17:21:43;;;;;;;3.40;3.08;;;8.90;99.90;;;;;;5106434;28;20080;-58
2022/02/09 17:25:08;;;;;;;4.43;2.72;;;8.80;99.90;;;;;;5095222;28;20028;-61
2022/02/09 17:28:57;;;;;;;4.68;2.72;;;8.80;99.90;;;;;;5103927;28;20126;-61
2022/02/09 17:33:06;;;;;;;3.03;2.70;;;8.70;99.90;;;;;;5088633;28;20036;-61
2022/02/09 17:36:01;;;;;;;4.25;2.88;;;8.60;99.90;;;;;;5078327;28;20440;-61
2022/02/09 17:53:22;;;;;;;3.80;2.88;;;8.70;99.90;;;;;;5104746;28;20043;-61
2022/02/09 17:56:24;;;;;;;3.45;3.00;;;8.50;99.90;;;;;;5092745;28;20039;-61
2022/02/09 18:00:07;;;;;;;3.30;2.72;;;8.50;99.90;;;;;;5104546;28;20028;-61
2022/02/09 18:03:12;;;;;;;4.55;3.00;;;8.50;99.90;;;;;;5097747;28;20039;-63
2022/02/09 18:06:44;;;;;;;4.25;2.72;;;8.50;99.90;;;;;;5107291;28;20032;-63
2022/02/09 18:10:51;;;;;;;4.13;3.05;;;8.40;99.90;;;;;;5106578;28;20126;-60
2022/02/09 18:30:19;;;;;;;4.20;3.80;;;8.50;99.90;;;;;;5107906;28;20055;-61
2022/02/09 18:43:27;;;;;;;5.32;3.63;;;8.50;99.90;;;;;;5097711;28;20510;-62
2022/02/09 18:47:06;;;;;;;5.38;4.40;;;8.40;99.90;;;;;;5107592;28;20503;-63
2022/02/09 18:57:44;;;;;;;7.30;4.32;;;8.50;99.90;;;;;;5106127;28;20051;-62
2022/02/09 19:04:00;;;;;;;6.75;4.72;;;8.50;99.90;;;;;;5093081;28;20078;-61
2022/02/09 19:14:27;;;;;;;5.45;4.50;;;8.50;99.90;;;;;;5093156;28;20035;-62
2022/02/09 19:30:59;;;;;;;4.55;3.40;;;8.60;99.90;;;;;;5044773;28;20093;-62
2022/02/09 19:48:00;;;;;;;6.88;3.80;;;8.70;99.90;;;;;;5088083;28;20026;-61
2022/02/09 19:54:44;;;;;;;4.53;3.33;;;8.70;99.90;;;;;;5105117;28;20040;-61
2022/02/09 19:57:55;;;;;;;4.82;4.15;;;8.60;99.90;;;;;;5099299;28;20046;-62
2022/02/09 20:01:18;;;;;;;5.47;3.97;;;8.70;99.90;;;;;;5103575;28;20035;-61
2022/02/09 20:04:42;;;;;;;4.68;3.60;;;8.70;99.90;;;;;;5104387;28;20067;-61
2022/02/09 20:08:07;;;;;;;5.07;3.90;;;8.70;99.90;;;;;;5108179;28;20112;-61
2022/02/09 20:11:34;;;;;;;4.82;4.13;;;8.70;99.90;;;;;;5100874;28;20039;-62
2022/02/09 20:14:58;;;;;;;4.55;3.72;;;8.70;99.90;;;;;;5098510;28;20523;-62
2022/02/09 20:18:24;;;;;;;6.97;4.72;;;8.70;99.90;;;;;;5092365;28;20036;-62
2022/02/09 20:21:49;;;;;;;5.60;3.95;;;8.80;99.90;;;;;;5103808;28;20051;-61
2022/02/09 20:25:16;;;;;;;5.50;4.47;;;8.70;99.90;;;;;;5103752;28;20035;-61
2022/02/09 20:28:45;;;;;;;5.72;4.57;;;8.80;99.90;;;;;;5101440;28;20077;-61
2022/02/09 20:32:14;;;;;;;5.82;4.13;;;8.70;99.90;;;;;;5096970;28;20407;-61
2022/02/09 20:35:30;;;;;;;5.07;4.28;;;8.80;99.90;;;;;;5091731;28;20043;-61
2022/02/09 20:38:58;;;;;;;4.78;4.22;;;8.80;99.90;;;;;;5102382;28;20047;-61
2022/02/09 20:42:22;;;;;;;8.07;4.95;;;8.70;99.90;;;;;;5104262;28;20044;-61
2022/02/09 20:45:50;;;;;;;5.40;4.20;;;8.80;99.90;;;;;;5105158;28;20436;-62
2022/02/09 20:49:12;;;;;;;6.00;4.05;;;8.80;99.90;;;;;;5104747;28;20506;-63
2022/02/09 20:52:37;;;;;;;6.20;4.50;;;8.80;99.90;;;;;;5104605;28;20167;-62
2022/02/09 20:56:03;;;;;;;6.15;5.03;;;8.80;99.90;;;;;;5089571;28;20055;-61
2022/02/09 20:59:28;;;;;;;4.45;3.72;;;8.80;99.90;;;;;;5104663;28;20032;-61
2022/02/09 21:03:16;;;;;;;5.97;4.32;;;8.80;99.90;;;;;;5107231;28;20167;-62
2022/02/09 21:10:16;;;;;;;5.25;3.80;;;8.80;99.90;;;;;;5090773;28;20471;-61
2022/02/09 21:13:49;;;;;;;8.18;4.63;;;8.80;99.90;;;;;;5095910;28;20042;-62
2022/02/09 21:44:28;;;;;;;6.68;4.85;;;8.80;99.90;;;;;;5094735;28;20039;-61
2022/02/09 21:54:13;;;;;;;9.55;5.07;;;8.90;99.90;;;;;;5063280;28;20051;-62
2022/02/09 22:16:18;;;;;;;8.23;6.03;;;8.90;99.90;;;;;;5099325;28;20042;-53
2022/02/09 22:26:31;;;;;;;10.40;5.40;;;8.80;99.90;;;;;;5101235;28;20449;-54
2022/02/09 22:29:01;;;;;;;7.55;5.40;;;8.90;99.90;;;;;;5092640;28;20396;-54
2022/02/09 22:31:52;;;;;;;7.95;5.65;;;8.80;99.90;;;;;;5102156;28;20395;-55
2022/02/09 22:34:53;;;;;;;8.45;6.57;;;8.80;99.90;;;;;;5091182;28;20193;-55
2022/02/09 22:45:32;;;;;;;9.27;6.15;;;8.90;99.90;;;;;;5109245;28;20483;-54
2022/02/09 22:45:37;;;;;;;8.38;5.88;;;8.80;99.90;;;;;;5105919;28;20055;-52
2022/02/09 22:50:44;;;;;;;8.40;5.70;;;8.90;99.90;;;;;;5107733;28;20093;-53
2022/02/09 22:55:55;;;;;;;10.27;6.68;;;8.80;99.90;;;;;;5103431;28;20576;-53
2022/02/09 22:58:20;;;;;;;10.85;6.25;;;8.90;99.90;;;;;;5105769;28;20051;-56
2022/02/09 23:01:03;;;;;;;7.25;6.03;;;8.90;99.90;;;;;;5107088;28;20316;-53
2022/02/09 23:03:54;;;;;;;8.70;6.05;;;8.90;99.90;;;;;;5099462;28;20517;-55
2022/02/09 23:06:38;;;;;;;7.95;6.18;;;8.90;99.90;;;;;;5107671;28;20031;-55
2022/02/09 23:09:37;;;;;;;9.75;6.68;;;8.90;99.90;;;;;;5102395;28;20032;-53
2022/02/09 23:14:44;;;;;;;10.00;6.82;;;8.90;99.90;;;;;;5093786;28;20049;-55
2022/02/09 23:28:39;;;;;;;6.93;5.47;;;8.90;99.90;;;;;;5096536;28;20043;-53
2022/02/09 23:55:39;;;;;;;10.40;7.43;;;8.80;99.90;;;;;;5106288;28;20042;-55
